Time;durP1;ratioP1;P1;durP2;ratioP2;P2;SDS_P1;SDS_P2;PMS_P1;PMS_P2;Temp;Humidity;BMP_temperature;BMP_pressure;BME280_temperature;BME280_humidity;BME280_pressure;Samples;Min_cycle;Max_cycle;Signal;HPM_P1;HPM_P2
2023/05/04 00:02:00;;;;;;;2.53;1.80;;;7.70;99.90;;;;;;5003913;28;20069;-83
2023/05/04 00:04:25;;;;;;;2.63;1.65;;;7.70;99.90;;;;;;5005272;28;20894;-84
2023/05/04 00:06:51;;;;;;;7.00;2.72;;;7.70;99.90;;;;;;5004864;28;20053;-86
2023/05/04 00:09:16;;;;;;;2.30;1.63;;;7.70;99.90;;;;;;5005932;28;20041;-83
2023/05/04 00:11:42;;;;;;;1.88;1.10;;;7.70;99.90;;;;;;4987359;28;20365;-83
2023/05/04 00:14:07;;;;;;;4.72;2.63;;;7.70;99.90;;;;;;5004367;28;20054;-85
2023/05/04 00:16:34;;;;;;;2.50;1.40;;;7.70;99.90;;;;;;5004066;28;20042;-84
2023/05/04 00:19:00;;;;;;;2.30;1.95;;;7.60;99.90;;;;;;5004479;28;20085;-84
2023/05/04 00:21:25;;;;;;;5.82;2.50;;;7.60;99.90;;;;;;5005425;28;20057;-82
2023/05/04 00:23:51;;;;;;;2.30;1.95;;;7.70;99.90;;;;;;5003797;28;20062;-82
2023/05/04 00:26:17;;;;;;;2.85;1.58;;;7.60;99.90;;;;;;5005251;28;20050;-83
2023/05/04 00:28:42;;;;;;;4.25;1.30;;;7.60;99.90;;;;;;5004902;28;20121;-86
2023/05/04 00:31:08;;;;;;;4.55;1.80;;;7.60;99.90;;;;;;5003561;28;20076;-84
2023/05/04 00:33:34;;;;;;;3.75;1.30;;;7.50;99.90;;;;;;5004807;28;20100;-86
2023/05/04 00:36:02;;;;;;;2.63;1.55;;;7.50;99.90;;;;;;4987014;28;20524;-84
2023/05/04 00:38:28;;;;;;;3.83;1.42;;;7.50;99.90;;;;;;5004856;28;20050;-85
2023/05/04 00:40:53;;;;;;;1.60;1.48;;;7.50;99.90;;;;;;5019447;28;20400;-86
2023/05/04 00:43:19;;;;;;;5.25;2.17;;;7.40;99.90;;;;;;5003421;28;20042;-85
2023/05/04 00:45:45;;;;;;;2.22;2.03;;;7.50;99.90;;;;;;4986352;28;20049;-85
2023/05/04 00:48:11;;;;;;;2.00;1.63;;;7.40;99.90;;;;;;5004369;28;20046;-83
2023/05/04 00:50:37;;;;;;;4.40;1.90;;;7.40;99.90;;;;;;5003497;28;20396;-84
2023/05/04 00:53:08;;;;;;;4.70;2.00;;;7.40;99.90;;;;;;5002900;28;20543;-87
2023/05/04 00:55:37;;;;;;;2.72;1.63;;;7.40;99.90;;;;;;5003757;28;20511;-84
2023/05/04 00:58:03;;;;;;;2.17;1.63;;;7.40;99.90;;;;;;5003411;28;20050;-85
2023/05/04 01:00:28;;;;;;;1.83;1.60;;;7.40;99.90;;;;;;5001935;28;20400;-87
2023/05/04 01:02:54;;;;;;;1.52;1.35;;;7.40;99.90;;;;;;5003982;28;20497;-82
2023/05/04 01:05:20;;;;;;;3.38;1.63;;;7.40;99.90;;;;;;5005112;28;20038;-85
2023/05/04 01:08:00;;;;;;;3.88;1.60;;;7.40;99.90;;;;;;5002035;28;20050;-84
2023/05/04 01:10:34;;;;;;;2.75;1.90;;;7.30;99.90;;;;;;5004211;28;20460;-82
2023/05/04 01:13:14;;;;;;;2.75;1.48;;;7.30;99.90;;;;;;5002853;28;20046;-86
2023/05/04 01:15:41;;;;;;;2.60;1.70;;;7.20;99.90;;;;;;5003059;28;20042;-84
2023/05/04 01:18:07;;;;;;;3.88;1.95;;;7.30;99.90;;;;;;5004117;28;20046;-86
2023/05/04 01:20:34;;;;;;;3.10;1.83;;;7.20;99.90;;;;;;4985358;28;20377;-83
2023/05/04 01:22:59;;;;;;;3.38;1.70;;;7.20;99.90;;;;;;5004254;28;20038;-84
2023/05/04 01:25:32;;;;;;;2.30;2.00;;;7.20;99.90;;;;;;5003750;28;20104;-85
2023/05/04 01:28:06;;;;;;;3.25;2.10;;;7.20;99.90;;;;;;5003137;28;20034;-85
2023/05/04 01:30:38;;;;;;;2.47;1.63;;;7.20;99.90;;;;;;5002551;28;20049;-86
2023/05/04 01:33:04;;;;;;;1.88;1.73;;;7.20;99.90;;;;;;5002957;28;20034;-83
2023/05/04 01:35:30;;;;;;;2.30;1.55;;;7.20;99.90;;;;;;5003756;28;20038;-81
2023/05/04 01:37:56;;;;;;;3.85;2.35;;;7.20;99.90;;;;;;5002322;28;20056;-85
2023/05/04 01:40:21;;;;;;;5.15;1.83;;;7.20;99.90;;;;;;5003832;28;20048;-85
2023/05/04 01:42:47;;;;;;;3.75;2.95;;;7.20;99.90;;;;;;5002503;28;20132;-82
2023/05/04 01:45:12;;;;;;;2.08;1.52;;;7.20;99.90;;;;;;5000961;28;20042;-84
2023/05/04 01:47:39;;;;;;;3.10;1.88;;;7.20;99.90;;;;;;5002679;28;20497;-86
2023/05/04 01:50:05;;;;;;;2.10;1.48;;;7.10;99.90;;;;;;5001991;28;20463;-85
2023/05/04 01:52:31;;;;;;;4.97;2.47;;;7.10;99.90;;;;;;5003927;28;20081;-83
2023/05/04 01:54:57;;;;;;;3.03;2.00;;;7.10;99.90;;;;;;4985817;28;20526;-83
2023/05/04 01:57:22;;;;;;;4.10;2.28;;;7.10;99.90;;;;;;5004088;28;20077;-85
2023/05/04 01:59:48;;;;;;;3.17;2.60;;;7.10;99.90;;;;;;5017590;28;20096;-81
2023/05/04 02:02:14;;;;;;;3.88;2.72;;;7.10;99.90;;;;;;5017904;28;20076;-84
2023/05/04 02:04:40;;;;;;;5.60;1.65;;;7.00;99.90;;;;;;5003550;28;20033;-85
2023/05/04 02:07:06;;;;;;;4.28;2.50;;;7.00;99.90;;;;;;5001649;28;20052;-86
2023/05/04 02:09:32;;;;;;;2.30;2.03;;;7.00;99.90;;;;;;5001585;28;20330;-83
2023/05/04 02:11:57;;;;;;;2.33;1.67;;;7.00;99.90;;;;;;4986111;28;20049;-83
2023/05/04 02:14:23;;;;;;;2.25;1.92;;;7.00;99.90;;;;;;5002276;28;20542;-84
2023/05/04 02:16:49;;;;;;;4.30;2.38;;;7.00;99.90;;;;;;5002136;28;20044;-86
2023/05/04 02:19:14;;;;;;;4.75;2.15;;;7.00;99.90;;;;;;5001991;28;20370;-84
2023/05/04 02:21:41;;;;;;;2.63;2.13;;;7.00;99.90;;;;;;5003569;28;20046;-84
2023/05/04 02:24:07;;;;;;;1.02;1.02;;;7.00;99.90;;;;;;5002983;28;20038;-84
2023/05/04 02:26:33;;;;;;;4.90;2.70;;;7.00;99.90;;;;;;5001924;28;20089;-84
2023/05/04 02:28:59;;;;;;;5.70;2.33;;;7.00;99.90;;;;;;4984354;28;20149;-83
2023/05/04 02:31:24;;;;;;;4.05;1.95;;;7.00;99.90;;;;;;5001574;28;20042;-84
2023/05/04 02:33:51;;;;;;;2.65;2.20;;;7.00;99.90;;;;;;5002366;28;20045;-85
2023/05/04 02:36:16;;;;;;;2.38;1.95;;;7.00;99.90;;;;;;5001528;28;20516;-86
2023/05/04 02:38:42;;;;;;;4.78;2.10;;;6.90;99.90;;;;;;5002935;28;20149;-84
2023/05/04 02:41:07;;;;;;;6.00;3.03;;;6.90;99.90;;;;;;5003315;28;20073;-87
2023/05/04 02:43:33;;;;;;;3.50;1.77;;;6.90;99.90;;;;;;4985436;28;20034;-84
2023/05/04 02:45:59;;;;;;;4.13;2.35;;;6.90;99.90;;;;;;5001146;28;20072;-86
2023/05/04 02:48:24;;;;;;;2.55;2.00;;;6.90;99.90;;;;;;5001842;28;20078;-85
2023/05/04 02:50:50;;;;;;;2.83;1.85;;;6.90;99.90;;;;;;5003230;28;20808;-84
2023/05/04 02:53:16;;;;;;;2.22;1.88;;;6.90;99.90;;;;;;5002371;28;20088;-86
2023/05/04 02:55:42;;;;;;;3.83;1.67;;;6.90;99.90;;;;;;5003150;28;20034;-81
2023/05/04 02:58:07;;;;;;;2.35;2.15;;;6.90;99.90;;;;;;5003128;28;20389;-86
2023/05/04 03:00:33;;;;;;;2.75;1.98;;;6.90;99.90;;;;;;5000035;28;20669;-83
2023/05/04 03:02:59;;;;;;;2.80;2.53;;;6.90;99.90;;;;;;5001611;28;20064;-82
2023/05/04 03:05:24;;;;;;;1.77;1.40;;;6.90;99.90;;;;;;5002787;28;20050;-85
2023/05/04 03:07:50;;;;;;;3.00;1.73;;;6.90;99.90;;;;;;5002457;28;20547;-85
2023/05/04 03:10:15;;;;;;;3.40;1.75;;;6.90;99.90;;;;;;5003378;28;20121;-83
2023/05/04 03:12:41;;;;;;;2.28;1.80;;;6.90;99.90;;;;;;5001841;28;20045;-84
2023/05/04 03:15:07;;;;;;;2.30;2.00;;;6.90;99.90;;;;;;5001562;28;20073;-86
2023/05/04 03:17:33;;;;;;;4.30;2.53;;;6.90;99.90;;;;;;5002469;28;20042;-83
2023/05/04 03:19:59;;;;;;;2.97;2.05;;;6.90;99.90;;;;;;5001930;28;20380;-84
2023/05/04 03:22:25;;;;;;;6.90;2.45;;;6.90;99.90;;;;;;5004836;28;20085;-85
2023/05/04 03:24:50;;;;;;;2.25;1.90;;;6.90;99.90;;;;;;5005146;28;20084;-84
2023/05/04 03:27:16;;;;;;;4.53;2.78;;;6.80;99.90;;;;;;5005947;28;20037;-86
2023/05/04 03:29:42;;;;;;;1.90;1.42;;;6.90;99.90;;;;;;5004453;28;20536;-84
2023/05/04 03:32:07;;;;;;;3.22;2.40;;;6.80;99.90;;;;;;5006142;28;20511;-86
2023/05/04 03:34:33;;;;;;;3.40;2.45;;;6.80;99.90;;;;;;5004596;28;20046;-83
2023/05/04 03:36:58;;;;;;;11.07;2.55;;;6.80;99.90;;;;;;5006776;28;20436;-84
2023/05/04 03:39:24;;;;;;;2.83;1.92;;;6.80;99.90;;;;;;5005742;28;20550;-85
2023/05/04 03:41:51;;;;;;;2.20;1.73;;;6.80;99.90;;;;;;5005881;28;20061;-84
2023/05/04 03:44:17;;;;;;;3.80;1.73;;;6.80;99.90;;;;;;5004007;28;20113;-86
2023/05/04 03:46:43;;;;;;;2.55;1.35;;;6.80;99.90;;;;;;5004251;28;20559;-83
2023/05/04 03:49:08;;;;;;;6.05;2.90;;;6.80;99.90;;;;;;5005965;28;20048;-85
2023/05/04 03:51:34;;;;;;;3.08;2.83;;;6.80;99.90;;;;;;5005570;28;20056;-85
2023/05/04 03:54:00;;;;;;;3.05;2.33;;;6.80;99.90;;;;;;5006166;28;20045;-86
2023/05/04 03:56:26;;;;;;;6.75;3.40;;;6.80;99.90;;;;;;5004137;28;20048;-85
2023/05/04 03:58:52;;;;;;;2.55;1.88;;;6.80;99.90;;;;;;5004312;28;20049;-83
2023/05/04 04:01:17;;;;;;;3.05;2.70;;;6.80;99.90;;;;;;5005786;28;20492;-87
2023/05/04 04:03:43;;;;;;;4.80;2.72;;;6.80;99.90;;;;;;5005071;28;20042;-85
2023/05/04 04:06:09;;;;;;;3.15;2.10;;;6.80;99.90;;;;;;5005260;28;20136;-85
2023/05/04 04:08:35;;;;;;;3.55;2.88;;;6.80;99.90;;;;;;5005292;28;20058;-86
2023/05/04 04:11:01;;;;;;;3.83;3.20;;;6.80;99.90;;;;;;5005751;28;20053;-83
2023/05/04 04:13:26;;;;;;;3.90;2.58;;;6.80;99.90;;;;;;5019622;28;20044;-86
2023/05/04 04:15:53;;;;;;;2.33;2.15;;;6.80;99.90;;;;;;5004063;28;20042;-84
2023/05/04 04:18:18;;;;;;;7.85;2.53;;;6.80;99.90;;;;;;5005738;28;20037;-87
2023/05/04 04:20:44;;;;;;;2.88;2.67;;;6.80;99.90;;;;;;4987349;28;20503;-85
2023/05/04 04:23:10;;;;;;;2.60;2.33;;;6.80;99.90;;;;;;4988360;28;20380;-83
2023/05/04 04:25:36;;;;;;;3.22;2.45;;;6.80;99.90;;;;;;5005145;28;20046;-86
2023/05/04 04:28:02;;;;;;;2.85;2.15;;;6.80;99.90;;;;;;5005434;28;20057;-85
2023/05/04 04:30:28;;;;;;;5.95;2.78;;;6.80;99.90;;;;;;5004306;28;20046;-86
2023/05/04 04:32:55;;;;;;;3.25;2.30;;;6.80;99.90;;;;;;5004054;28;20045;-83
2023/05/04 04:35:24;;;;;;;6.53;3.00;;;6.80;99.90;;;;;;5004533;28;20140;-84
2023/05/04 04:37:50;;;;;;;12.38;1.98;;;6.80;99.90;;;;;;5004126;28;20045;-86
2023/05/04 04:40:16;;;;;;;6.55;2.80;;;6.80;99.90;;;;;;5004187;28;20112;-84
2023/05/04 04:42:42;;;;;;;4.88;2.67;;;6.80;99.90;;;;;;4986772;28;20084;-84
2023/05/04 04:45:08;;;;;;;4.30;2.75;;;6.80;99.90;;;;;;5003697;28;20504;-85
2023/05/04 04:47:34;;;;;;;6.05;3.67;;;6.80;99.90;;;;;;5005267;28;20046;-85
2023/05/04 04:50:00;;;;;;;3.45;3.10;;;6.90;99.90;;;;;;5004404;28;20139;-84
2023/05/04 04:52:26;;;;;;;3.13;1.92;;;6.90;99.90;;;;;;5003073;28;20242;-84
2023/05/04 04:54:52;;;;;;;3.33;2.15;;;6.90;99.90;;;;;;5003873;28;20151;-86
2023/05/04 04:57:17;;;;;;;4.18;2.25;;;6.90;99.90;;;;;;5003527;28;20045;-82
2023/05/04 04:59:43;;;;;;;3.83;1.83;;;6.90;99.90;;;;;;5003446;28;20184;-84
2023/05/04 05:02:09;;;;;;;2.25;1.75;;;6.90;99.90;;;;;;5004369;28;20054;-87
2023/05/04 05:04:39;;;;;;;2.60;2.10;;;6.90;99.90;;;;;;5003037;28;20060;-84
2023/05/04 05:07:07;;;;;;;8.60;2.75;;;6.90;99.90;;;;;;5004783;28;20049;-84
2023/05/04 05:09:33;;;;;;;6.00;2.90;;;6.90;99.90;;;;;;5003342;28;20125;-85
2023/05/04 05:11:59;;;;;;;5.47;2.50;;;7.00;99.90;;;;;;5002651;28;20120;-84
2023/05/04 05:14:26;;;;;;;5.22;3.00;;;7.00;99.90;;;;;;5003255;28;20046;-85
2023/05/04 05:16:52;;;;;;;2.28;1.58;;;7.00;99.90;;;;;;5002468;28;20045;-85
2023/05/04 05:19:18;;;;;;;3.08;2.78;;;7.00;99.90;;;;;;5002995;28;20056;-84
2023/05/04 05:21:43;;;;;;;4.72;2.72;;;7.00;99.90;;;;;;5003760;28;20029;-87
2023/05/04 05:24:09;;;;;;;4.90;2.60;;;7.10;99.90;;;;;;5002455;28;20385;-85
2023/05/04 05:26:35;;;;;;;2.58;2.17;;;7.10;99.90;;;;;;5002882;28;20603;-87
2023/05/04 05:29:01;;;;;;;3.00;2.65;;;7.20;99.90;;;;;;4985046;28;20044;-84
2023/05/04 05:31:30;;;;;;;2.72;1.88;;;7.10;99.90;;;;;;5002978;28;20415;-83
2023/05/04 05:33:56;;;;;;;3.20;2.47;;;7.20;99.90;;;;;;5002667;28;20574;-85
2023/05/04 05:36:22;;;;;;;4.07;2.97;;;7.20;99.90;;;;;;5002384;28;20049;-84
2023/05/04 05:38:47;;;;;;;3.30;2.00;;;7.30;99.90;;;;;;5002348;28;20052;-85
2023/05/04 05:41:14;;;;;;;3.47;2.05;;;7.30;99.90;;;;;;5003556;28;20136;-85
2023/05/04 05:43:40;;;;;;;5.30;2.70;;;7.40;99.90;;;;;;5002605;28;20061;-82
2023/05/04 05:46:06;;;;;;;2.60;2.40;;;7.40;99.90;;;;;;5002619;28;20046;-83
2023/05/04 05:48:32;;;;;;;3.55;2.10;;;7.40;99.90;;;;;;5003606;28;20339;-84
2023/05/04 05:50:58;;;;;;;3.80;2.45;;;7.50;99.90;;;;;;5003908;28;20052;-81
2023/05/04 05:53:23;;;;;;;2.13;2.03;;;7.50;99.90;;;;;;5002513;28;20054;-84
2023/05/04 05:55:49;;;;;;;6.45;3.45;;;7.50;99.90;;;;;;5003840;28;20408;-83
2023/05/04 05:58:15;;;;;;;4.60;3.35;;;7.60;99.90;;;;;;5002931;28;20038;-84
2023/05/04 06:00:41;;;;;;;4.90;2.80;;;7.60;99.90;;;;;;5003277;28;20053;-84
2023/05/04 06:03:06;;;;;;;5.40;2.58;;;7.70;99.90;;;;;;5002203;28;20500;-83
2023/05/04 06:05:35;;;;;;;2.30;2.00;;;7.70;99.90;;;;;;5002110;28;20065;-84
2023/05/04 06:08:01;;;;;;;5.78;2.83;;;7.70;99.90;;;;;;5002842;28;20069;-83
2023/05/04 06:10:26;;;;;;;7.05;2.67;;;7.80;99.90;;;;;;5003682;28;20054;-84
2023/05/04 06:12:52;;;;;;;3.58;3.20;;;7.80;99.90;;;;;;4986268;28;20057;-84
2023/05/04 06:15:18;;;;;;;3.88;2.58;;;7.80;99.90;;;;;;5000925;28;20038;-86
2023/05/04 06:17:44;;;;;;;4.53;2.05;;;7.90;99.90;;;;;;5001547;28;20208;-84
2023/05/04 06:20:10;;;;;;;3.05;2.03;;;7.90;99.90;;;;;;5003880;28;20397;-85
2023/05/04 06:22:36;;;;;;;3.38;2.65;;;8.00;99.90;;;;;;5001768;28;20136;-86
2023/05/04 06:25:02;;;;;;;5.53;1.90;;;8.00;99.90;;;;;;5003652;28;20536;-85
2023/05/04 06:27:30;;;;;;;6.00;2.20;;;8.00;99.90;;;;;;5003842;28;20041;-86
2023/05/04 06:29:55;;;;;;;3.28;1.95;;;8.10;99.90;;;;;;5000062;28;20050;-85
2023/05/04 06:32:21;;;;;;;2.95;2.40;;;8.10;99.90;;;;;;5003273;28;20041;-85
2023/05/04 06:34:47;;;;;;;6.68;2.13;;;8.20;99.90;;;;;;5003001;28;20077;-86
2023/05/04 06:37:12;;;;;;;3.13;1.95;;;8.20;99.90;;;;;;5002992;28;20050;-86
2023/05/04 06:39:38;;;;;;;3.78;3.05;;;8.30;99.90;;;;;;5003583;28;20048;-88
2023/05/04 06:42:03;;;;;;;2.50;2.30;;;8.40;99.90;;;;;;5002749;28;20493;-84
2023/05/04 06:44:29;;;;;;;3.63;2.60;;;8.40;99.90;;;;;;5001149;28;20046;-81
2023/05/04 06:46:55;;;;;;;4.95;3.05;;;8.40;99.90;;;;;;5001491;28;20287;-84
2023/05/04 06:49:20;;;;;;;2.58;2.00;;;8.50;99.90;;;;;;5003118;28;20393;-85
2023/05/04 06:51:46;;;;;;;2.22;1.75;;;8.50;99.90;;;;;;5003034;28;20399;-86
2023/05/04 06:54:12;;;;;;;5.90;2.17;;;8.60;99.90;;;;;;5003996;28;20061;-85
2023/05/04 06:56:38;;;;;;;6.07;2.85;;;8.60;99.90;;;;;;5006101;28;20082;-86
2023/05/04 06:59:04;;;;;;;3.28;2.30;;;8.60;99.90;;;;;;5005214;28;20543;-82
2023/05/04 07:01:30;;;;;;;2.70;2.15;;;8.60;99.90;;;;;;5007294;28;20041;-85
2023/05/04 07:03:57;;;;;;;8.25;2.45;;;8.70;99.90;;;;;;5006020;28;20108;-86
2023/05/04 07:06:25;;;;;;;4.50;2.45;;;8.70;99.90;;;;;;5005988;28;20243;-84
2023/05/04 07:08:51;;;;;;;3.65;2.70;;;8.80;99.90;;;;;;5006734;28;20064;-86
2023/05/04 07:11:17;;;;;;;3.58;2.33;;;8.80;99.90;;;;;;5021137;28;20540;-84
2023/05/04 07:13:42;;;;;;;4.88;3.35;;;8.90;99.90;;;;;;5005863;28;20053;-86
2023/05/04 07:16:08;;;;;;;5.38;2.30;;;8.90;99.90;;;;;;5006059;28;20042;-82
2023/05/04 07:18:34;;;;;;;2.53;1.55;;;8.90;99.90;;;;;;5006140;28;20563;-85
2023/05/04 07:21:00;;;;;;;6.70;1.73;;;9.00;99.90;;;;;;5006003;28;20082;-87
2023/05/04 07:23:26;;;;;;;4.20;2.17;;;9.00;99.90;;;;;;5005760;28;20330;-84
2023/05/04 07:25:51;;;;;;;2.78;2.00;;;9.10;99.90;;;;;;5006715;28;20050;-86
2023/05/04 07:28:17;;;;;;;2.42;2.13;;;9.10;99.90;;;;;;5004251;28;20050;-83
2023/05/04 07:30:42;;;;;;;5.63;2.45;;;9.10;99.90;;;;;;5006434;28;20049;-86
2023/05/04 07:33:08;;;;;;;4.10;2.55;;;9.20;99.90;;;;;;5006193;28;20547;-87
2023/05/04 07:35:33;;;;;;;4.28;3.08;;;9.20;99.90;;;;;;5005477;28;20456;-83
2023/05/04 07:37:59;;;;;;;3.83;2.00;;;9.20;99.90;;;;;;5004526;28;20045;-86
2023/05/04 07:40:25;;;;;;;2.85;1.73;;;9.30;99.90;;;;;;5006214;28;20121;-84
2023/05/04 07:42:51;;;;;;;5.90;2.60;;;9.30;99.90;;;;;;5004841;28;20192;-86
2023/05/04 07:45:16;;;;;;;3.65;2.35;;;9.40;99.90;;;;;;5004376;28;20046;-85
2023/05/04 07:47:42;;;;;;;5.50;3.13;;;9.50;99.90;;;;;;5006570;28;20084;-85
2023/05/04 07:50:08;;;;;;;5.68;3.20;;;9.60;99.90;;;;;;5003707;28;20404;-84
2023/05/04 07:52:34;;;;;;;3.15;2.75;;;9.60;99.90;;;;;;5005374;28;20042;-84
2023/05/04 07:54:59;;;;;;;4.28;2.75;;;9.70;99.90;;;;;;5005803;28;20042;-85
2023/05/04 07:57:25;;;;;;;3.95;2.00;;;9.70;99.90;;;;;;5005100;28;20602;-85
2023/05/04 07:59:54;;;;;;;3.55;2.15;;;9.80;99.90;;;;;;5003416;28;20045;-85
2023/05/04 08:02:20;;;;;;;4.40;2.58;;;9.80;99.90;;;;;;5004133;28;20053;-87
2023/05/04 08:04:46;;;;;;;13.20;2.22;;;9.90;99.90;;;;;;5005110;28;20256;-83
2023/05/04 08:07:14;;;;;;;10.00;2.92;;;10.00;99.90;;;;;;5004803;28;20042;-86
2023/05/04 08:09:39;;;;;;;7.95;3.03;;;9.90;99.90;;;;;;5003860;28;20508;-85
2023/05/04 08:12:06;;;;;;;5.63;2.42;;;10.00;99.90;;;;;;5005490;28;20034;-86
2023/05/04 08:14:32;;;;;;;5.88;2.55;;;10.10;99.90;;;;;;5003507;28;20034;-87
2023/05/04 08:16:58;;;;;;;7.75;2.95;;;10.20;99.90;;;;;;5005234;28;20408;-84
2023/05/04 08:19:24;;;;;;;5.90;2.45;;;10.20;99.90;;;;;;5003644;28;20041;-82
2023/05/04 08:21:49;;;;;;;6.40;2.50;;;10.20;99.90;;;;;;5005602;28;20111;-86
2023/05/04 08:24:16;;;;;;;3.47;2.33;;;10.30;99.90;;;;;;5005499;28;20115;-84
2023/05/04 08:26:42;;;;;;;4.63;2.00;;;10.30;99.90;;;;;;5004391;28;20042;-87
2023/05/04 08:29:09;;;;;;;7.07;2.78;;;10.30;99.90;;;;;;5003685;28;20034;-85
2023/05/04 08:31:35;;;;;;;6.85;2.17;;;10.40;99.90;;;;;;5004002;28;20054;-87
2023/05/04 08:34:02;;;;;;;3.38;2.47;;;10.40;99.90;;;;;;5003130;28;20575;-81
2023/05/04 08:36:28;;;;;;;3.85;2.28;;;10.50;99.90;;;;;;5004959;28;20046;-85
2023/05/04 08:38:54;;;;;;;8.55;3.92;;;10.50;99.90;;;;;;5004812;28;20050;-85
2023/05/04 08:41:22;;;;;;;5.95;2.60;;;10.60;99.90;;;;;;5004306;28;20131;-82
2023/05/04 08:43:48;;;;;;;6.47;2.42;;;10.60;99.90;;;;;;5003642;28;20101;-83
2023/05/04 08:46:15;;;;;;;4.32;2.75;;;10.70;99.90;;;;;;5004543;28;20518;-87
2023/05/04 08:48:43;;;;;;;3.60;2.35;;;10.70;99.90;;;;;;5004081;28;20180;-81
2023/05/04 08:51:10;;;;;;;5.40;3.25;;;10.70;99.90;;;;;;5003860;28;20046;-84
2023/05/04 08:53:39;;;;;;;4.32;3.30;;;10.80;99.90;;;;;;5004506;28;20038;-87
2023/05/04 08:56:08;;;;;;;6.72;2.22;;;10.80;99.90;;;;;;5003411;28;20475;-84
2023/05/04 08:58:36;;;;;;;5.68;3.45;;;10.80;99.90;;;;;;5002864;28;20041;-83
2023/05/04 09:01:05;;;;;;;2.97;2.28;;;10.90;99.90;;;;;;5004430;28;20046;-84
2023/05/04 09:03:31;;;;;;;5.43;1.70;;;11.00;99.90;;;;;;5004065;28;20089;-87
2023/05/04 09:05:58;;;;;;;8.05;2.60;;;11.00;99.90;;;;;;5004471;28;20184;-84
2023/05/04 09:08:24;;;;;;;5.13;3.10;;;11.10;99.90;;;;;;5004776;28;20053;-86
2023/05/04 09:10:50;;;;;;;5.22;2.70;;;11.20;99.90;;;;;;5004448;28;20030;-84
2023/05/04 09:13:15;;;;;;;5.25;1.90;;;11.30;99.90;;;;;;5003363;28;20038;-87
2023/05/04 09:15:41;;;;;;;3.83;2.05;;;11.30;99.90;;;;;;5003664;28;20107;-86
2023/05/04 09:18:08;;;;;;;3.55;2.20;;;11.40;99.90;;;;;;5004008;28;20049;-85
2023/05/04 09:20:46;;;;;;;4.25;2.28;;;11.40;99.90;;;;;;5003535;28;20493;-86
2023/05/04 09:23:13;;;;;;;5.63;2.10;;;11.50;99.90;;;;;;5003350;28;20042;-84
2023/05/04 09:25:49;;;;;;;5.65;2.20;;;11.50;99.90;;;;;;5003878;28;20128;-85
2023/05/04 09:28:17;;;;;;;5.82;3.45;;;11.60;99.90;;;;;;5001487;28;20065;-83
2023/05/04 09:30:43;;;;;;;5.38;2.72;;;11.70;99.90;;;;;;5002210;28;20156;-82
2023/05/04 09:33:09;;;;;;;7.35;3.38;;;11.70;99.90;;;;;;5005027;28;20033;-85
2023/05/04 09:35:41;;;;;;;4.35;2.28;;;11.80;99.90;;;;;;5003915;28;20085;-82
2023/05/04 09:38:07;;;;;;;;;;;11.80;99.90;;;;;;5003995;28;20045;-87
2023/05/04 09:40:36;;;;;;;4.55;2.38;;;11.80;99.90;;;;;;5004550;28;19922;-84
2023/05/04 09:43:02;;;;;;;5.63;2.60;;;11.90;99.90;;;;;;5003415;28;20061;-86
2023/05/04 09:45:38;;;;;;;6.45;2.60;;;12.00;99.90;;;;;;5003363;28;20073;-82
2023/05/04 09:48:25;;;;;;;3.08;1.98;;;12.00;99.90;;;;;;4986118;28;20073;-86
2023/05/04 09:50:52;;;;;;;6.85;2.58;;;12.10;99.90;;;;;;5003102;28;20042;-84
2023/05/04 09:53:26;;;;;;;4.10;2.33;;;12.10;99.90;;;;;;5002702;28;20175;-88
2023/05/04 09:56:16;;;;;;;6.47;2.63;;;12.20;99.90;;;;;;5004613;28;20408;-82
2023/05/04 09:58:44;;;;;;;7.30;2.47;;;12.20;99.90;;;;;;4985393;28;20083;-87
2023/05/04 10:01:10;;;;;;;5.88;2.55;;;12.30;99.90;;;;;;4985689;28;20053;-85
2023/05/04 10:03:36;;;;;;;2.88;1.73;;;12.30;99.90;;;;;;5003612;28;20050;-83
2023/05/04 10:06:04;;;;;;;5.97;2.80;;;12.40;99.90;;;;;;5003750;28;20413;-86
2023/05/04 10:08:31;;;;;;;4.47;2.22;;;12.50;99.90;;;;;;5003946;28;20350;-83
2023/05/04 10:10:57;;;;;;;3.90;2.05;;;12.50;99.90;;;;;;5002330;28;20045;-85
2023/05/04 10:13:24;;;;;;;5.60;2.10;;;12.60;99.90;;;;;;5002846;28;20045;-81
2023/05/04 10:16:30;;;;;;;4.65;2.35;;;12.60;99.90;;;;;;5003784;28;20117;-84
2023/05/04 10:19:14;;;;;;;5.00;2.60;;;12.60;99.90;;;;;;5004041;28;20045;-85
2023/05/04 10:21:48;;;;;;;3.60;2.67;;;12.70;99.90;;;;;;5003423;28;20046;-84
2023/05/04 10:24:40;;;;;;;5.28;2.63;;;12.70;99.90;;;;;;5002169;28;20132;-83
2023/05/04 10:27:32;;;;;;;5.47;2.33;;;12.70;99.90;;;;;;4986259;28;20056;-86
2023/05/04 10:30:00;;;;;;;3.90;2.25;;;12.80;99.90;;;;;;4975604;28;20608;-84
2023/05/04 10:32:26;;;;;;;5.90;2.50;;;12.90;99.90;;;;;;5006924;28;20404;-87
2023/05/04 10:35:04;;;;;;;6.32;2.47;;;12.90;99.90;;;;;;5007754;28;20038;-82
2023/05/04 10:37:30;;;;;;;5.50;2.90;;;13.00;99.90;;;;;;4989770;28;20046;-85
2023/05/04 10:39:57;;;;;;;5.78;2.17;;;13.00;99.90;;;;;;5007407;28;20049;-85
2023/05/04 10:42:23;;;;;;;3.72;2.60;;;13.00;99.90;;;;;;5005223;28;20053;-86
2023/05/04 10:44:56;;;;;;;8.40;2.13;;;13.10;99.90;;;;;;5007104;28;20041;-85
2023/05/04 10:47:36;;;;;;;4.13;2.83;;;13.20;99.90;;;;;;5006067;28;20042;-86
2023/05/04 10:50:05;;;;;;;8.80;2.38;;;13.20;99.90;;;;;;5007124;28;20073;-84
2023/05/04 10:52:43;;;;;;;6.38;2.72;;;13.30;99.90;;;;;;5006587;28;20046;-86
2023/05/04 10:55:09;;;;;;;3.67;2.28;;;13.30;99.90;;;;;;5006092;28;20132;-87
2023/05/04 10:57:55;;;;;;;3.58;2.53;;;13.30;99.90;;;;;;5005468;28;20113;-85
2023/05/04 11:00:21;;;;;;;3.53;1.98;;;13.30;99.90;;;;;;5008134;28;20044;-84
2023/05/04 11:02:48;;;;;;;6.57;2.53;;;13.30;99.90;;;;;;5007566;28;20062;-82
2023/05/04 11:05:18;;;;;;;6.18;3.13;;;13.40;99.90;;;;;;5006320;28;20069;-84
2023/05/04 11:07:46;;;;;;;5.00;2.60;;;13.40;99.90;;;;;;5007343;28;20363;-85
2023/05/04 11:10:23;;;;;;;5.45;3.15;;;13.40;99.90;;;;;;4989999;28;20409;-87
2023/05/04 11:12:49;;;;;;;4.40;2.30;;;13.50;99.90;;;;;;5006365;28;20108;-86
2023/05/04 11:15:14;;;;;;;4.05;2.63;;;13.50;99.90;;;;;;5005668;28;20081;-85
2023/05/04 11:17:53;;;;;;;5.65;2.25;;;13.60;99.90;;;;;;4989305;28;20415;-85
2023/05/04 11:20:25;;;;;;;2.75;1.95;;;13.70;99.90;;;;;;5006351;28;20661;-83
2023/05/04 11:22:52;;;;;;;;;;;13.80;99.90;;;;;;5006719;28;20493;-85
2023/05/04 11:25:26;;;;;;;3.65;1.80;;;13.80;99.90;;;;;;5005545;28;19928;-87
2023/05/04 11:27:52;;;;;;;4.70;2.00;;;13.90;99.90;;;;;;5005404;28;20045;-86
2023/05/04 11:30:17;;;;;;;4.38;2.17;;;14.00;99.90;;;;;;5005898;28;20037;-85
2023/05/04 11:32:48;;;;;;;3.63;2.58;;;14.00;99.90;;;;;;5006552;28;20184;-82
2023/05/04 11:35:18;;;;;;;3.92;2.30;;;14.00;99.90;;;;;;5004749;28;20038;-86
2023/05/04 11:37:45;;;;;;;4.50;2.65;;;14.10;99.90;;;;;;4988212;28;20050;-86
2023/05/04 11:40:18;;;;;;;6.35;3.10;;;14.10;99.90;;;;;;5006412;28;20070;-84
2023/05/04 11:42:44;;;;;;;3.00;2.67;;;14.10;99.90;;;;;;5004004;28;20034;-84
2023/05/04 11:45:26;;;;;;;6.50;2.70;;;14.20;99.90;;;;;;5006431;28;20034;-87
2023/05/04 11:47:55;;;;;;;4.47;2.38;;;14.20;99.90;;;;;;5006072;28;20080;-83
2023/05/04 11:50:21;;;;;;;4.15;2.30;;;14.20;99.90;;;;;;5005120;28;20620;-85
2023/05/04 11:52:47;;;;;;;5.43;2.53;;;14.20;99.90;;;;;;5006218;28;20070;-86
2023/05/04 11:55:25;;;;;;;10.93;2.33;;;14.30;99.90;;;;;;5005900;28;20073;-85
2023/05/04 11:58:10;;;;;;;4.90;2.40;;;14.30;99.90;;;;;;5003456;28;20576;-82
2023/05/04 12:00:48;;;;;;;3.00;1.73;;;14.40;99.90;;;;;;5006190;28;20042;-85
2023/05/04 12:03:25;;;;;;;2.53;2.00;;;14.40;99.90;;;;;;5005518;28;20057;-83
2023/05/04 12:05:53;;;;;;;5.05;1.95;;;14.50;99.90;;;;;;5005675;28;20591;-84
2023/05/04 12:08:26;;;;;;;3.55;2.63;;;14.60;99.90;;;;;;5004875;28;20112;-86
2023/05/04 12:11:19;;;;;;;7.78;2.53;;;14.60;99.90;;;;;;5005877;28;20056;-82
2023/05/04 12:13:46;;;;;;;8.20;3.03;;;14.60;99.90;;;;;;5004812;28;20093;-85
2023/05/04 12:16:15;;;;;;;4.88;2.15;;;14.70;99.90;;;;;;5005394;28;20038;-88
2023/05/04 12:18:43;;;;;;;4.50;2.30;;;14.70;99.90;;;;;;4987687;28;20258;-85
2023/05/04 12:21:13;;;;;;;5.25;2.60;;;14.80;99.90;;;;;;5005662;28;20077;-84
2023/05/04 12:23:40;;;;;;;5.10;2.17;;;14.80;99.90;;;;;;5005460;28;20053;-87
2023/05/04 12:26:10;;;;;;;6.40;3.17;;;14.80;99.90;;;;;;5004957;28;20048;-88
2023/05/04 12:28:36;;;;;;;6.88;3.08;;;14.80;99.90;;;;;;5002535;28;20072;-85
2023/05/04 12:31:06;;;;;;;5.53;2.65;;;14.90;99.90;;;;;;5005965;28;20048;-85
2023/05/04 12:33:32;;;;;;;3.38;2.65;;;14.80;99.90;;;;;;5004546;28;20045;-87
2023/05/04 12:35:59;;;;;;;4.95;2.42;;;14.90;99.90;;;;;;5005187;28;20070;-85
2023/05/04 12:38:25;;;;;;;5.75;3.63;;;14.90;99.90;;;;;;5005046;28;20049;-86
2023/05/04 12:40:51;;;;;;;4.30;2.88;;;15.00;99.90;;;;;;5005726;28;20056;-84
2023/05/04 12:43:18;;;;;;;3.65;2.63;;;15.00;99.90;;;;;;5004740;28;20499;-86
2023/05/04 12:45:44;;;;;;;4.72;3.10;;;15.00;99.90;;;;;;5004083;28;20049;-87
2023/05/04 12:48:10;;;;;;;5.13;2.15;;;15.00;99.90;;;;;;5004538;28;20232;-85
2023/05/04 12:50:36;;;;;;;4.13;2.63;;;15.00;99.90;;;;;;5005687;28;20376;-86
2023/05/04 12:53:03;;;;;;;4.35;2.40;;;15.10;99.90;;;;;;5005193;28;20067;-86
2023/05/04 12:55:30;;;;;;;5.80;2.38;;;15.10;99.90;;;;;;5005582;28;20104;-85